Time;durP1;ratioP1;P1;durP2;ratioP2;P2;SDS_P1;SDS_P2;PMS_P1;PMS_P2;Temp;Humidity;BMP_temperature;BMP_pressure;BME280_temperature;BME280_humidity;BME280_pressure;Samples;Min_cycle;Max_cycle;Signal;HPM_P1;HPM_P2
2022/09/24 00:01:25;;;;;;;1.95;1.42;;;;;;;9.04;81.15;101199.84;10470231;28;20041;-84
2022/09/24 00:06:30;;;;;;;4.03;1.50;;;;;;;8.98;81.22;101198.94;10487179;28;20045;-84
2022/09/24 00:11:33;;;;;;;3.28;1.55;;;;;;;8.90;80.88;101193.94;10485659;28;20049;-84
2022/09/24 00:16:36;;;;;;;2.63;1.70;;;;;;;8.84;81.73;101191.38;10488325;28;20045;-83
2022/09/24 00:21:39;;;;;;;2.60;1.77;;;;;;;8.93;81.53;101189.84;10482449;28;20557;-84
2022/09/24 00:26:50;;;;;;;3.10;1.90;;;;;;;8.96;82.12;101178.41;10482121;28;20052;-84
2022/09/24 00:31:53;;;;;;;2.47;1.65;;;;;;;9.05;82.39;101174.13;10488891;28;20033;-84
2022/09/24 00:36:55;;;;;;;3.53;1.48;;;;;;;9.32;81.97;101174.09;10487236;28;20037;-84
2022/09/24 00:41:57;;;;;;;3.33;2.22;;;;;;;9.46;81.68;101175.31;10466594;28;20048;-84
2022/09/24 00:47:00;;;;;;;3.00;2.58;;;;;;;9.59;80.50;101157.63;10460250;28;20045;-85
2022/09/24 00:52:02;;;;;;;3.90;2.65;;;;;;;9.67;80.39;101168.09;10484602;28;20042;-85
2022/09/24 00:57:04;;;;;;;4.57;2.60;;;;;;;9.64;80.04;101161.22;10485264;28;20044;-85
2022/09/24 01:02:07;;;;;;;4.88;2.20;;;;;;;9.73;79.73;101163.50;10486225;28;20041;-85
2022/09/24 01:07:09;;;;;;;4.22;2.40;;;;;;;9.78;80.01;101152.56;10469199;28;20049;-84
2022/09/24 01:12:21;;;;;;;5.82;2.10;;;;;;;9.67;79.95;101152.47;10484034;28;20052;-84
2022/09/24 01:17:33;;;;;;;3.38;2.38;;;;;;;9.53;80.64;101153.19;10481991;28;20033;-85
2022/09/24 01:22:45;;;;;;;2.15;1.63;;;;;;;9.25;80.69;101146.13;10486683;28;20542;-84
2022/09/24 01:27:55;;;;;;;3.92;2.00;;;;;;;8.96;81.60;101140.06;10474965;28;20045;-84
2022/09/24 01:33:02;;;;;;;2.47;1.67;;;;;;;8.81;82.96;101134.44;10473739;28;20041;-84
2022/09/24 01:38:12;;;;;;;3.77;1.80;;;;;;;8.73;83.24;101131.09;10484992;28;20049;-84
2022/09/24 01:43:19;;;;;;;3.33;1.60;;;;;;;8.65;84.47;101131.53;10466517;28;20053;-84
2022/09/24 01:48:22;;;;;;;2.17;1.52;;;;;;;8.59;84.76;101129.00;10452958;28;20063;-82
2022/09/24 01:53:27;;;;;;;0.73;0.73;;;;;;;8.63;85.18;101127.41;10479569;28;20396;-85
2022/09/24 01:58:36;;;;;;;1.30;0.57;;;;;;;8.64;85.57;101123.56;10485663;28;20154;-83
2022/09/24 02:03:42;;;;;;;1.35;0.52;;;;;;;8.67;86.53;101134.00;10469186;28;20044;-82
2022/09/24 02:08:46;;;;;;;0.60;0.60;;;;;;;8.68;87.96;101135.69;10456699;28;20056;-83
2022/09/24 02:14:00;;;;;;;0.40;0.40;;;;;;;8.68;88.12;101131.03;10484841;28;20045;-83
2022/09/24 02:19:05;;;;;;;0.75;0.60;;;;;;;8.69;88.68;101120.91;10485038;28;20047;-83
2022/09/24 02:24:13;;;;;;;1.75;0.88;;;;;;;8.82;88.42;101123.22;10482647;28;20040;-82
2022/09/24 02:29:15;;;;;;;2.28;0.60;;;;;;;8.77;89.42;101124.00;10444637;28;20397;-82
2022/09/24 02:34:21;;;;;;;0.93;0.63;;;;;;;8.69;89.47;101124.47;10472938;28;20033;-82
2022/09/24 02:39:24;;;;;;;0.55;0.52;;;;;;;8.58;90.17;101125.44;10483504;28;20040;-82
2022/09/24 02:44:26;;;;;;;0.85;0.60;;;;;;;8.50;90.50;101112.19;10482065;28;20407;-82
2022/09/24 02:49:28;;;;;;;1.52;1.10;;;;;;;8.49;90.96;101113.28;10476680;28;20036;-83
2022/09/24 02:54:30;;;;;;;0.77;0.77;;;;;;;8.47;91.58;101101.78;10481489;28;20044;-82
2022/09/24 02:59:32;;;;;;;0.80;0.70;;;;;;;8.45;92.13;101103.94;10480110;28;20539;-83
2022/09/24 03:04:34;;;;;;;0.60;0.60;;;;;;;8.45;92.74;101099.28;10481857;28;20045;-83
2022/09/24 03:09:37;;;;;;;1.45;1.10;;;;;;;8.49;92.91;101099.59;10483103;28;20461;-83
2022/09/24 03:14:39;;;;;;;1.30;0.90;;;;;;;8.54;92.06;101091.47;10484552;28;20037;-82
2022/09/24 03:19:41;;;;;;;1.05;0.93;;;;;;;8.50;92.53;101092.22;10482060;28;20048;-82
2022/09/24 03:24:43;;;;;;;1.98;0.90;;;;;;;8.51;92.66;101089.25;10475311;28;20037;-82
2022/09/24 03:35:07;;;;;;;1.02;0.90;;;;;;;8.55;93.11;101081.38;10483967;28;20430;-82
2022/09/24 03:40:09;;;;;;;1.02;0.73;;;;;;;8.56;93.26;101083.03;10488734;28;20123;-82
2022/09/24 03:45:12;;;;;;;2.20;1.00;;;;;;;8.58;93.47;101083.59;10487395;28;20041;-82
2022/09/24 03:50:14;;;;;;;1.67;1.10;;;;;;;8.56;93.00;101083.84;10489183;28;20045;-82
2022/09/24 03:55:16;;;;;;;2.03;1.00;;;;;;;8.49;93.73;101091.41;10489087;28;20427;-82
2022/09/24 04:00:18;;;;;;;2.25;1.00;;;;;;;8.50;92.99;101087.59;10488587;28;20056;-82
2022/09/24 04:05:20;;;;;;;1.70;1.23;;;;;;;8.51;93.54;101086.53;10475599;28;20041;-82
2022/09/24 04:10:23;;;;;;;0.45;0.30;;;;;;;8.52;92.97;101081.88;10483313;28;20071;-82
2022/09/24 04:15:26;;;;;;;1.05;0.85;;;;;;;8.54;92.85;101086.00;10479031;28;20076;-82
2022/09/24 04:20:28;;;;;;;1.65;0.80;;;;;;;8.52;93.50;101087.34;10486145;28;20067;-83
2022/09/24 04:25:31;;;;;;;0.47;0.38;;;;;;;8.49;93.57;101088.66;10486897;28;20065;-82
2022/09/24 04:30:34;;;;;;;0.98;0.85;;;;;;;8.42;94.14;101091.63;10482338;28;20056;-82
2022/09/24 04:35:36;;;;;;;0.70;0.60;;;;;;;8.37;93.74;101088.00;10503286;28;20519;-82
2022/09/24 04:40:39;;;;;;;2.72;1.20;;;;;;;8.34;93.88;101085.78;10480569;28;20040;-82
2022/09/24 04:45:43;;;;;;;2.20;0.35;;;;;;;8.37;94.27;101086.09;10486047;28;20041;-82
2022/09/24 04:50:45;;;;;;;4.45;1.13;;;;;;;8.44;93.59;101091.34;10488093;28;20068;-82
2022/09/24 04:55:49;;;;;;;1.38;1.02;;;;;;;8.49;93.82;101088.66;10484983;28;20048;-82
2022/09/24 05:06:19;;;;;;;2.50;1.13;;;;;;;8.65;94.24;101079.53;10471358;28;20048;-82
2022/09/24 05:11:21;;;;;;;1.17;0.73;;;;;;;8.86;92.85;101083.34;10485593;28;20041;-82
2022/09/24 05:16:24;;;;;;;2.42;0.73;;;;;;;9.28;92.87;101080.69;10485454;28;20479;-81
2022/09/24 05:21:26;;;;;;;1.33;0.88;;;;;;;9.78;91.94;101073.09;10486214;28;20143;-82
2022/09/24 05:27:11;;;;;;;4.60;0.95;;;;;;;10.29;90.49;101063.22;10496950;28;20052;-82
2022/09/24 05:32:16;;;;;;;1.02;0.88;;;;;;;10.86;88.16;101059.50;10476677;28;20049;-83
2022/09/24 05:37:18;;;;;;;1.00;0.88;;;;;;;11.36;85.54;101057.88;10484970;28;20037;-83
2022/09/24 05:42:21;;;;;;;3.83;1.17;;;;;;;11.71;83.00;101068.00;10467658;28;20124;-83
2022/09/24 05:47:23;;;;;;;1.35;0.77;;;;;;;12.01;80.15;101061.63;10481696;28;20055;-82
2022/09/24 05:52:25;;;;;;;3.42;1.30;;;;;;;12.28;78.30;101051.03;10474877;28;21621;-82
2022/09/24 05:57:27;;;;;;;2.67;0.90;;;;;;;12.56;75.99;101057.78;10499163;28;20052;-82
2022/09/24 06:02:35;;;;;;;1.50;0.98;;;;;;;12.63;75.23;101046.44;10482682;28;20052;-82
2022/09/24 06:07:38;;;;;;;1.42;0.25;;;;;;;12.91;74.35;101050.41;10474890;28;20662;-82
2022/09/24 06:12:41;;;;;;;1.55;1.00;;;;;;;13.08;73.10;101041.72;10475671;28;20037;-81
2022/09/24 06:17:43;;;;;;;1.30;0.90;;;;;;;12.95;73.01;101044.03;10485575;28;20483;-81
2022/09/24 06:22:46;;;;;;;1.83;0.77;;;;;;;13.09;72.38;101037.88;10482047;28;20044;-82
2022/09/24 06:28:05;;;;;;;2.47;0.90;;;;;;;13.16;71.85;101041.09;10477536;28;20037;-82
2022/09/24 06:33:09;;;;;;;4.70;1.02;;;;;;;12.82;72.39;101039.16;10478989;28;20033;-81
2022/09/24 06:38:16;;;;;;;0.47;0.47;;;;;;;12.85;71.83;101041.38;10462485;28;20049;-79
2022/09/24 06:43:19;;;;;;;0.75;0.68;;;;;;;12.72;72.25;101028.22;10481573;28;20044;-80
2022/09/24 06:48:22;;;;;;;2.85;0.88;;;;;;;12.50;71.36;101045.16;10480046;28;20040;-81
2022/09/24 06:53:25;;;;;;;0.32;0.32;;;;;;;12.07;72.45;101025.56;10477791;28;20041;-80
2022/09/24 06:58:28;;;;;;;2.30;0.90;;;;;;;12.03;72.50;101024.47;10481788;28;20041;-81
2022/09/24 07:03:32;;;;;;;0.68;0.30;;;;;;;11.86;71.68;101026.75;10481743;28;20483;-81
2022/09/24 07:08:35;;;;;;;0.63;0.50;;;;;;;11.69;72.14;101026.22;10481316;28;20041;-81
2022/09/24 07:13:38;;;;;;;1.20;0.70;;;;;;;11.80;71.36;101021.53;10487418;28;20045;-80
2022/09/24 07:18:40;;;;;;;0.05;0.05;;;;;;;12.14;70.65;101016.16;10490732;28;20045;-82
2022/09/24 07:23:43;;;;;;;0.98;0.50;;;;;;;12.49;68.86;101006.88;10492700;28;20036;-80
2022/09/24 07:28:45;;;;;;;0.73;0.50;;;;;;;12.76;66.07;101006.44;10501685;28;20037;-80
2022/09/24 07:33:47;;;;;;;0.20;0.20;;;;;;;13.24;63.71;101012.97;10488517;28;20132;-81
2022/09/24 07:38:50;;;;;;;0.50;0.45;;;;;;;13.32;61.55;101017.84;10486966;28;20049;-80
2022/09/24 07:43:54;;;;;;;0.28;0.20;;;;;;;13.11;59.75;101019.09;10490979;28;20033;-81
2022/09/24 07:48:57;;;;;;;0.85;0.20;;;;;;;12.85;60.78;101016.56;10486922;28;20549;-81
2022/09/24 07:54:00;;;;;;;0.40;0.40;;;;;;;12.49;61.07;101013.22;10481690;28;20041;-81
2022/09/24 07:59:05;;;;;;;1.25;0.50;;;;;;;12.58;61.22;101028.03;10490059;28;20502;-83
2022/09/24 08:04:07;;;;;;;0.43;0.43;;;;;;;13.07;60.50;100999.59;10491330;28;20079;-83
2022/09/24 08:09:10;;;;;;;1.00;0.55;;;;;;;13.61;58.22;100986.69;10488620;28;20442;-83
2022/09/24 08:14:13;;;;;;;0.70;0.50;;;;;;;14.07;57.24;100982.25;10493877;28;20064;-82
2022/09/24 08:19:16;;;;;;;1.30;0.80;;;;;;;14.36;55.02;100993.16;10488438;28;20037;-83
2022/09/24 08:24:19;;;;;;;1.17;0.50;;;;;;;14.33;53.48;100996.50;10485351;28;20056;-81
2022/09/24 08:29:21;;;;;;;0.40;0.38;;;;;;;14.33;52.25;100973.59;10471763;28;20141;-80
2022/09/24 08:34:24;;;;;;;0.43;0.43;;;;;;;14.28;52.62;100965.41;10472510;28;20041;-81
2022/09/24 08:39:26;;;;;;;0.70;0.60;;;;;;;14.35;52.07;100982.41;10489527;28;20041;-82
2022/09/24 08:50:00;;;;;;;0.88;0.60;;;;;;;14.16;51.56;100979.63;10453311;28;20509;-81
2022/09/24 08:55:11;;;;;;;0.30;0.30;;;;;;;13.99;51.84;100958.06;10488424;28;20041;-81
2022/09/24 09:00:14;;;;;;;0.40;0.32;;;;;;;13.47;52.14;100957.03;10469181;28;20500;-81
2022/09/24 09:05:16;;;;;;;1.45;0.70;;;;;;;12.98;52.61;100954.47;10483147;28;20119;-82
2022/09/24 09:10:26;;;;;;;0.52;0.43;;;;;;;12.44;53.65;100965.66;10482982;28;20680;-81
2022/09/24 09:15:34;;;;;;;0.45;0.43;;;;;;;12.06;54.39;100943.31;10484973;28;20041;-81
2022/09/24 09:20:44;;;;;;;0.63;0.22;;;;;;;11.70;55.80;100940.72;10486435;28;20503;-79
2022/09/24 09:25:54;;;;;;;0.60;0.60;;;;;;;11.53;55.69;100934.72;10486633;28;20037;-81
2022/09/24 09:31:30;;;;;;;1.38;0.70;;;;;;;11.41;55.87;100947.94;10503488;28;20131;-82
2022/09/24 09:36:44;;;;;;;0.77;0.60;;;;;;;11.27;57.15;100922.16;10487510;28;20041;-81
2022/09/24 09:42:16;;;;;;;0.68;0.47;;;;;;;11.17;57.81;100918.34;10484539;28;20079;-83
2022/09/24 09:47:24;;;;;;;0.38;0.38;;;;;;;11.17;57.39;100929.34;10477256;28;20484;-82
2022/09/24 09:52:27;;;;;;;0.70;0.68;;;;;;;11.14;56.72;100913.41;10477300;28;20427;-82
2022/09/24 09:57:30;;;;;;;0.50;0.30;;;;;;;11.27;57.26;100917.47;10486355;28;20163;-82
2022/09/24 10:02:33;;;;;;;5.60;0.60;;;;;;;11.30;56.51;100900.47;10484727;28;20041;-81
2022/09/24 10:07:44;;;;;;;1.52;0.68;;;;;;;11.21;56.09;100902.13;10473567;28;21702;-80
2022/09/24 10:12:46;;;;;;;0.73;0.70;;;;;;;11.22;56.26;100902.94;10485730;28;20045;-81
2022/09/24 10:17:51;;;;;;;4.30;0.75;;;;;;;11.22;55.24;100905.69;10486028;28;20029;-81
2022/09/24 10:22:56;;;;;;;0.28;0.28;;;;;;;11.15;55.88;100882.09;10457478;28;20041;-81
2022/09/24 10:33:36;;;;;;;13.88;4.88;;;;;;;11.22;56.27;100883.72;10469369;28;20037;-80
2022/09/24 10:38:38;;;;;;;17.00;7.07;;;;;;;11.26;56.07;100876.56;10482131;28;20041;-80
2022/09/24 10:43:49;;;;;;;2.80;0.90;;;;;;;11.26;55.75;100876.56;10485030;28;20033;-80
2022/09/24 10:49:04;;;;;;;0.65;0.32;;;;;;;11.21;55.61;100877.41;10475787;28;20118;-87
2022/09/24 10:54:48;;;;;;;1.38;0.80;;;;;;;11.15;55.07;100851.88;10491544;28;20072;-86
2022/09/24 10:59:58;;;;;;;0.85;0.40;;;;;;;11.14;55.94;100861.22;10493046;28;20525;-80
2022/09/24 11:05:10;;;;;;;1.08;0.57;;;;;;;11.11;55.72;100872.78;10492740;28;20055;-82
2022/09/24 11:10:40;;;;;;;1.85;1.15;;;;;;;11.15;55.59;100846.41;10489952;28;20061;-86
2022/09/24 11:16:05;;;;;;;1.35;0.70;;;;;;;11.23;55.78;100852.41;10490730;28;20053;-82
2022/09/24 11:21:22;;;;;;;1.65;0.80;;;;;;;11.20;56.17;100831.00;10486651;28;20048;-77
2022/09/24 11:26:54;;;;;;;2.40;1.00;;;;;;;11.26;55.61;100824.38;10486501;28;20060;-77
2022/09/24 11:32:12;;;;;;;0.80;0.60;;;;;;;11.26;54.58;100838.09;10487924;28;20072;-76
2022/09/24 11:37:37;;;;;;;0.98;0.93;;;;;;;11.24;55.78;100821.91;10490228;28;20041;-74
2022/09/24 11:43:32;;;;;;;0.50;0.50;;;;;;;11.23;54.86;100831.25;10480732;28;20025;-76
2022/09/24 11:49:00;;;;;;;1.08;0.68;;;;;;;11.15;55.62;100827.16;10470445;28;20503;-77
2022/09/24 11:54:07;;;;;;;1.33;0.80;;;;;;;11.17;55.94;100822.22;10479893;28;20037;-77
2022/09/24 11:59:19;;;;;;;5.07;1.05;;;;;;;11.17;56.35;100816.72;10495952;28;20044;-76
2022/09/24 12:04:28;;;;;;;0.77;0.70;;;;;;;11.26;55.50;100832.59;10490715;28;20502;-74
2022/09/24 12:09:39;;;;;;;1.45;0.85;;;;;;;11.27;55.37;100804.03;10475168;28;20044;-74
2022/09/24 12:14:47;;;;;;;5.07;0.75;;;;;;;11.29;55.04;100821.91;10489574;28;20041;-73
2022/09/24 12:19:59;;;;;;;2.33;0.70;;;;;;;11.33;55.00;100812.00;10489507;28;20049;-75
2022/09/24 12:25:03;;;;;;;3.47;0.73;;;;;;;11.31;55.17;100807.88;10489626;28;20372;-72
2022/09/24 12:35:56;;;;;;;0.98;0.80;;;;;;;11.23;55.98;100794.72;10484359;28;20424;-72
2022/09/24 12:41:21;;;;;;;1.33;0.63;;;;;;;11.28;55.29;100811.16;10488735;28;20037;-72
2022/09/24 12:46:27;;;;;;;0.90;0.70;;;;;;;11.22;55.05;100790.34;10472382;28;20499;-72
2022/09/24 12:51:35;;;;;;;1.50;0.70;;;;;;;11.16;55.69;100775.81;10489223;28;20049;-72
2022/09/24 12:56:37;;;;;;;2.35;0.77;;;;;;;11.13;55.72;100787.38;10488479;28;20037;-72
2022/09/24 13:01:39;;;;;;;1.10;0.82;;;;;;;11.05;55.97;100775.03;10482577;28;20052;-72
2022/09/24 13:06:45;;;;;;;1.08;0.60;;;;;;;11.07;57.17;100778.31;10487072;28;20052;-72
2022/09/24 13:11:47;;;;;;;1.95;0.75;;;;;;;11.03;56.89;100765.41;10487258;28;20036;-74
2022/09/24 13:16:51;;;;;;;1.45;0.70;;;;;;;10.97;56.84;100759.13;10488400;28;20056;-74
2022/09/24 13:21:56;;;;;;;2.38;0.90;;;;;;;10.97;57.47;100759.13;10488298;28;20044;-73
2022/09/24 13:27:20;;;;;;;1.20;0.77;;;;;;;11.00;57.29;100744.03;10487310;28;20068;-73
2022/09/24 13:32:23;;;;;;;2.70;0.98;;;;;;;11.02;58.12;100748.13;10486737;28;20406;-73
2022/09/24 13:37:33;;;;;;;0.60;0.50;;;;;;;11.06;57.36;100754.69;10486688;28;20047;-73
2022/09/24 13:42:48;;;;;;;1.45;0.55;;;;;;;11.03;57.78;100749.78;10486349;28;20041;-71
2022/09/24 13:47:56;;;;;;;1.35;0.80;;;;;;;11.03;57.61;100749.78;10469469;28;20495;-72
2022/09/24 13:53:03;;;;;;;0.77;0.50;;;;;;;11.06;57.44;100751.13;10486932;28;20423;-72
2022/09/24 13:58:28;;;;;;;2.10;0.80;;;;;;;11.05;57.62;100733.81;10486913;28;20033;-72
2022/09/24 14:03:34;;;;;;;0.60;0.52;;;;;;;11.05;57.64;100727.50;10487705;28;20059;-72
2022/09/24 14:08:40;;;;;;;1.20;0.77;;;;;;;11.00;57.34;100731.13;10487368;28;20057;-72
2022/09/24 14:13:46;;;;;;;1.13;0.60;;;;;;;10.93;57.61;100716.03;10485146;28;20522;-72
2022/09/24 14:19:00;;;;;;;1.55;0.68;;;;;;;10.87;57.00;100712.50;10484945;28;20036;-72
2022/09/24 14:24:06;;;;;;;1.58;0.60;;;;;;;10.81;57.72;100708.97;10468473;28;20051;-72
2022/09/24 14:29:17;;;;;;;1.13;0.80;;;;;;;10.83;58.08;100709.50;10484622;28;20056;-74
2022/09/24 14:34:32;;;;;;;1.05;0.70;;;;;;;10.82;57.95;100696.88;10482496;28;20550;-73
2022/09/24 14:39:40;;;;;;;0.57;0.50;;;;;;;10.77;57.33;100696.09;10483578;28;20439;-72
2022/09/24 14:44:44;;;;;;;0.82;0.43;;;;;;;10.73;57.67;100694.97;10484364;28;20048;-73
2022/09/24 14:49:48;;;;;;;0.90;0.60;;;;;;;10.70;57.19;100701.03;10485945;28;20055;-73
2022/09/24 14:55:18;;;;;;;0.80;0.70;;;;;;;10.65;57.13;100692.84;10485173;28;20673;-73
2022/09/24 15:00:29;;;;;;;1.13;0.60;;;;;;;10.62;58.13;100699.72;10484165;28;20047;-73
2022/09/24 15:05:32;;;;;;;1.58;0.80;;;;;;;10.55;58.37;100699.16;10485714;28;20041;-73
2022/09/24 15:10:34;;;;;;;0.73;0.47;;;;;;;10.50;58.07;100705.50;10485910;28;20131;-73
2022/09/24 15:15:36;;;;;;;0.60;0.50;;;;;;;10.46;59.25;100704.41;10476504;28;20041;-73
2022/09/24 15:20:38;;;;;;;0.80;0.70;;;;;;;10.40;59.27;100702.78;10484391;28;20049;-73
2022/09/24 15:25:42;;;;;;;1.15;0.70;;;;;;;10.37;58.90;100697.84;10484568;28;20045;-73
2022/09/24 15:30:44;;;;;;;1.05;0.70;;;;;;;10.35;60.13;100696.50;10484052;28;20063;-73
2022/09/24 15:35:47;;;;;;;1.30;0.90;;;;;;;10.30;59.90;100700.06;10490801;28;20049;-73
2022/09/24 15:40:50;;;;;;;1.33;1.23;;;;;;;10.25;59.95;100697.34;10492206;28;20055;-73
2022/09/24 15:45:52;;;;;;;0.93;0.70;;;;;;;10.17;60.91;100686.91;10492831;28;20056;-73
2022/09/24 15:50:55;;;;;;;1.88;1.20;;;;;;;10.06;61.27;100685.25;10492556;28;20036;-73
2022/09/24 15:55:59;;;;;;;2.22;0.90;;;;;;;10.03;61.99;100689.38;10484416;28;20412;-73
2022/09/24 16:01:02;;;;;;;1.75;1.23;;;;;;;9.96;62.26;100686.94;10491351;28;20349;-73
2022/09/24 16:06:04;;;;;;;1.20;0.95;;;;;;;9.90;62.46;100679.81;10491154;28;20048;-73
2022/09/24 16:11:07;;;;;;;1.65;1.23;;;;;;;9.84;62.14;100672.69;10490826;28;20071;-73
2022/09/24 16:16:09;;;;;;;1.70;1.20;;;;;;;9.77;63.19;100676.81;10491838;28;20503;-73
2022/09/24 16:21:12;;;;;;;1.02;0.70;;;;;;;9.69;62.53;100683.66;10490995;28;20389;-73
2022/09/24 16:26:14;;;;;;;2.58;1.25;;;;;;;9.64;63.31;100679.00;10489712;28;20041;-73
2022/09/24 16:31:17;;;;;;;3.55;1.13;;;;;;;9.57;63.29;100666.69;10489701;28;20045;-73
2022/09/24 16:36:22;;;;;;;1.70;1.17;;;;;;;9.49;64.01;100665.28;10488130;28;20067;-73
2022/09/24 16:41:24;;;;;;;5.47;1.70;;;;;;;9.42;64.47;100664.75;10485617;28;20419;-73
2022/09/24 16:46:27;;;;;;;5.53;1.98;;;;;;;9.40;64.97;100658.72;10488243;28;20033;-73
2022/09/24 16:51:29;;;;;;;4.50;2.30;;;;;;;9.28;65.83;100658.16;10489301;28;20055;-73
2022/09/24 16:56:31;;;;;;;2.35;1.48;;;;;;;9.22;65.20;100653.78;10489333;28;20037;-73
2022/09/24 17:01:33;;;;;;;3.88;1.77;;;;;;;9.11;65.43;100650.19;10489433;28;20498;-73
2022/09/24 17:06:36;;;;;;;3.55;1.80;;;;;;;9.04;65.92;100658.69;10488146;28;20044;-73
2022/09/24 17:11:39;;;;;;;2.40;1.48;;;;;;;8.96;65.89;100641.94;10489729;28;20067;-73
2022/09/24 17:16:42;;;;;;;3.47;1.50;;;;;;;8.92;66.06;100638.94;10484592;28;20037;-74
2022/09/24 17:21:51;;;;;;;2.78;1.80;;;;;;;8.88;66.12;100632.38;10488599;28;20052;-72
2022/09/24 17:26:53;;;;;;;2.38;1.33;;;;;;;8.88;67.00;100628.81;10488861;28;20052;-72
2022/09/24 17:31:56;;;;;;;4.05;1.90;;;;;;;8.84;66.41;100619.47;10487896;28;20068;-74
2022/09/24 17:36:58;;;;;;;4.40;2.00;;;;;;;8.74;67.40;100621.09;10488120;28;20045;-74
2022/09/24 17:42:01;;;;;;;3.13;2.05;;;;;;;8.64;67.24;100610.13;10488457;28;20053;-73
2022/09/24 17:47:03;;;;;;;4.25;2.17;;;;;;;8.51;68.53;100599.72;10488196;28;20048;-73
2022/09/24 17:52:05;;;;;;;4.97;2.72;;;;;;;8.46;68.53;100602.41;10484278;28;20045;-73
2022/09/24 17:57:08;;;;;;;3.38;1.90;;;;;;;8.44;68.80;100596.38;10485985;28;20048;-73
2022/09/24 18:02:10;;;;;;;2.85;1.85;;;;;;;8.38;68.66;100594.72;10486150;28;20045;-73
2022/09/24 18:07:12;;;;;;;4.55;1.90;;;;;;;8.28;69.28;100589.19;10487462;28;20055;-73
2022/09/24 18:12:15;;;;;;;7.75;2.22;;;;;;;8.19;68.74;100582.59;10486390;28;20053;-72
2022/09/24 18:17:17;;;;;;;2.85;1.85;;;;;;;8.14;68.87;100580.63;10487878;28;20045;-73
2022/09/24 18:22:19;;;;;;;2.15;1.63;;;;;;;8.08;69.02;100570.78;10487017;28;20049;-73
2022/09/24 18:27:22;;;;;;;3.97;1.70;;;;;;;8.07;68.67;100569.13;10485639;28;20043;-73
2022/09/24 18:32:25;;;;;;;2.20;1.50;;;;;;;8.04;68.67;100566.94;10484816;28;20423;-73
2022/09/24 18:37:27;;;;;;;2.50;1.33;;;;;;;8.00;69.24;100550.28;10485764;28;20474;-73
2022/09/24 18:42:33;;;;;;;2.20;1.30;;;;;;;8.00;68.81;100550.28;10484443;28;20040;-73
2022/09/24 18:47:37;;;;;;;1.80;1.38;;;;;;;7.98;69.30;100551.59;10483227;28;20060;-73
2022/09/24 18:52:39;;;;;;;2.28;1.48;;;;;;;7.95;69.45;100539.28;10484886;28;20459;-73
2022/09/24 18:57:41;;;;;;;1.58;1.20;;;;;;;7.96;69.72;100543.66;10485174;28;20041;-73
2022/09/24 19:02:43;;;;;;;3.03;1.38;;;;;;;7.96;69.12;100535.47;10484391;28;20037;-73
2022/09/24 19:07:45;;;;;;;3.63;1.25;;;;;;;7.92;69.88;100534.38;10487788;28;20056;-73
2022/09/24 19:12:49;;;;;;;2.83;1.45;;;;;;;7.93;69.66;100527.81;10492985;28;20064;-73
2022/09/24 19:17:52;;;;;;;2.65;1.50;;;;;;;7.90;70.02;100528.34;10493126;28;20037;-73
2022/09/24 19:22:59;;;;;;;1.27;1.10;;;;;;;7.85;69.94;100522.88;10493456;28;20048;-73
2022/09/24 19:28:03;;;;;;;1.10;1.00;;;;;;;7.82;70.52;100518.75;10493126;28;20053;-73
2022/09/24 19:33:05;;;;;;;1.95;1.25;;;;;;;7.84;70.65;100510.31;10491256;28;20048;-73
2022/09/24 19:38:07;;;;;;;1.55;0.95;;;;;;;7.79;70.64;100511.06;10492692;28;20511;-73
2022/09/24 19:43:09;;;;;;;2.25;1.10;;;;;;;7.76;70.66;100510.78;10492396;28;20530;-73
2022/09/24 19:48:11;;;;;;;3.78;1.15;;;;;;;7.73;71.76;100514.06;10492634;28;20056;-73
2022/09/24 19:53:13;;;;;;;1.85;1.30;;;;;;;7.72;71.82;100499.59;10491922;28;20049;-72
2022/09/24 19:58:16;;;;;;;2.75;1.20;;;;;;;7.73;71.94;100505.88;10491549;28;20044;-73
2022/09/24 20:03:18;;;;;;;1.38;1.10;;;;;;;7.72;72.34;100494.13;10490293;28;20412;-73
2022/09/24 20:08:22;;;;;;;2.88;1.10;;;;;;;7.70;72.88;100499.03;10491431;28;20512;-73
2022/09/24 20:13:24;;;;;;;1.23;1.10;;;;;;;7.70;73.42;100499.03;10490764;28;20044;-73
2022/09/24 20:18:27;;;;;;;1.42;1.02;;;;;;;7.68;73.44;100487.56;10490648;28;20041;-73
2022/09/24 20:23:29;;;;;;;1.80;1.02;;;;;;;7.65;73.36;100479.91;10489402;28;20048;-73
2022/09/24 20:28:32;;;;;;;1.10;1.00;;;;;;;7.65;73.73;100487.28;10490751;28;20045;-73
2022/09/24 20:33:34;;;;;;;2.25;1.05;;;;;;;7.63;74.46;100479.31;10489221;28;20048;-73
2022/09/24 20:38:36;;;;;;;1.33;1.00;;;;;;;7.62;74.72;100476.84;10475660;28;20049;-73
2022/09/24 20:43:43;;;;;;;2.47;1.20;;;;;;;7.62;74.89;100477.66;10489184;28;20033;-73
2022/09/24 20:48:46;;;;;;;1.63;1.05;;;;;;;7.62;74.91;100477.66;10483216;28;20057;-73
2022/09/24 20:53:49;;;;;;;1.58;1.20;;;;;;;7.58;75.40;100462.91;10503777;28;20530;-73
2022/09/24 20:58:52;;;;;;;1.23;1.13;;;;;;;7.50;75.40;100464.25;10518294;28;20049;-73
2022/09/24 21:03:56;;;;;;;1.40;1.02;;;;;;;7.46;76.12;100460.41;10489108;28;20041;-74
2022/09/24 21:08:59;;;;;;;1.80;1.20;;;;;;;7.47;76.47;100451.13;10517113;28;20246;-73
2022/09/24 21:14:01;;;;;;;1.45;0.95;;;;;;;7.44;76.62;100451.63;10513862;28;20052;-73
2022/09/24 21:19:06;;;;;;;1.83;1.15;;;;;;;7.45;76.11;100456.00;10482241;28;20419;-74
2022/09/24 21:24:11;;;;;;;3.33;1.40;;;;;;;7.48;76.43;100446.50;10479074;28;20056;-74
2022/09/24 21:29:16;;;;;;;2.55;1.10;;;;;;;7.42;76.42;100444.81;10475683;28;20040;-74
2022/09/24 21:34:19;;;;;;;1.90;1.33;;;;;;;7.32;77.00;100442.84;10482742;28;20500;-73
2022/09/24 21:39:23;;;;;;;1.88;1.20;;;;;;;7.25;77.51;100434.06;10472493;28;20037;-74
2022/09/24 21:44:29;;;;;;;1.75;1.20;;;;;;;7.19;77.52;100433.22;10490332;28;20056;-75
2022/09/24 21:49:32;;;;;;;2.45;1.27;;;;;;;7.16;78.52;100428.31;10499799;28;20049;-75
2022/09/24 21:54:35;;;;;;;2.08;1.42;;;;;;;7.04;78.64;100432.31;10511434;28;20052;-75
2022/09/24 22:05:00;;;;;;;1.95;1.20;;;;;;;6.87;78.93;100433.28;10484994;28;20045;-73
2022/09/24 22:10:02;;;;;;;1.52;1.25;;;;;;;6.72;79.57;100426.88;10486680;28;20057;-74
2022/09/24 22:15:05;;;;;;;2.63;1.85;;;;;;;6.64;79.86;100430.94;10485031;28;20041;-73
2022/09/24 22:20:08;;;;;;;2.75;1.70;;;;;;;6.53;79.90;100427.28;10486194;28;20045;-74
2022/09/24 22:25:10;;;;;;;3.70;1.92;;;;;;;6.48;80.11;100421.78;10485922;28;20507;-74
2022/09/24 22:30:12;;;;;;;3.38;1.98;;;;;;;6.44;80.54;100422.59;10477907;28;20053;-73
2022/09/24 22:40:35;;;;;;;5.60;2.20;;;;;;;6.26;81.77;100415.59;10479760;28;20411;-74
2022/09/24 22:45:37;;;;;;;4.50;1.70;;;;;;;6.17;82.16;100415.22;10483368;28;20045;-74
2022/09/24 22:50:40;;;;;;;4.65;1.83;;;;;;;6.09;81.34;100407.53;10484183;28;20056;-74
2022/09/24 22:55:43;;;;;;;4.15;2.20;;;;;;;6.10;81.99;100411.91;10482426;28;20041;-74
2022/09/24 23:00:46;;;;;;;4.97;1.90;;;;;;;6.07;82.21;100411.56;10484857;28;20056;-73
2022/09/24 23:05:49;;;;;;;4.30;1.98;;;;;;;6.03;82.40;100411.28;10478856;28;20048;-74
2022/09/24 23:10:52;;;;;;;5.88;2.17;;;;;;;5.97;82.53;100406.84;10457415;28;20539;-74
2022/09/24 23:15:55;;;;;;;2.45;1.77;;;;;;;5.90;83.39;100400.78;10478008;28;20037;-73
2022/09/24 23:20:57;;;;;;;2.83;1.65;;;;;;;5.90;82.86;100387.16;10484934;28;20065;-74
2022/09/24 23:26:05;;;;;;;3.00;1.40;;;;;;;6.02;83.11;100387.84;10503395;28;20033;-74
2022/09/24 23:31:11;;;;;;;1.63;1.52;;;;;;;5.98;82.96;100386.72;10498350;28;20080;-74
2022/09/24 23:36:14;;;;;;;2.25;1.48;;;;;;;6.01;83.33;100383.47;10483753;28;20048;-74
2022/09/24 23:41:16;;;;;;;2.65;1.50;;;;;;;5.99;83.72;100369.28;10479101;28;20045;-73
2022/09/24 23:46:19;;;;;;;2.30;1.30;;;;;;;5.95;83.52;100355.38;10482316;28;20041;-74
2022/09/24 23:51:21;;;;;;;4.43;1.20;;;;;;;5.93;84.37;100356.72;10481347;28;20208;-73
2022/09/24 23:56:24;;;;;;;3.58;1.42;;;;;;;5.92;83.66;100363.25;10482415;28;20088;-73
